Airport ICAO


07:27 UTC

22°C


An affordable passengers' Moving Map for your aircraft. Made for the iPad and the iPhone
More information here

LFMC Le Cannet


Le Luc FRANCE   


METAR LFMC 190700Z AUTO 00000KT 9999 ////// 22/17 Q1018 0h27min





NOTAMS

OPEN